createdAt,value
2023-05-20T00:00:35.600Z,2.33
2023-05-20T00:03:04.276Z,2.30
2023-05-20T00:05:32.935Z,2.53
2023-05-20T00:08:04.874Z,2.40
2023-05-20T00:10:33.401Z,2.50
2023-05-20T00:13:02.216Z,2.77
2023-05-20T00:15:30.723Z,2.20
2023-05-20T00:17:59.365Z,2.17
2023-05-20T00:20:27.793Z,2.40
2023-05-20T00:22:55.908Z,2.57
2023-05-20T00:25:25.497Z,2.13
2023-05-20T00:27:53.583Z,2.10
2023-05-20T00:30:22.175Z,2.23
2023-05-20T00:32:50.270Z,2.30
2023-05-20T00:35:18.241Z,2.50
2023-05-20T00:37:46.192Z,2.33
2023-05-20T00:40:15.640Z,2.40
2023-05-20T00:42:45.263Z,2.17
2023-05-20T00:45:13.240Z,2.20
2023-05-20T00:47:41.297Z,2.10
2023-05-20T00:50:10.661Z,2.20
2023-05-20T00:52:38.889Z,2.10
2023-05-20T00:55:07.030Z,2.23
2023-05-20T00:57:35.040Z,2.17
2023-05-20T01:00:04.772Z,2.53
2023-05-20T01:02:32.909Z,2.33
2023-05-20T01:05:00.998Z,2.17
2023-05-20T01:07:28.957Z,1.90
2023-05-20T01:09:56.988Z,2.53
2023-05-20T01:12:28.305Z,2.30
2023-05-20T01:14:59.342Z,2.13
2023-05-20T01:17:33.302Z,2.77
2023-05-20T01:20:02.372Z,2.10
2023-05-20T01:22:31.699Z,2.57
2023-05-20T01:24:59.721Z,2.27
2023-05-20T01:27:28.086Z,2.27
2023-05-20T01:29:56.124Z,2.00
2023-05-20T01:32:26.258Z,2.13
2023-05-20T01:34:54.510Z,2.03
2023-05-20T01:37:23.681Z,2.07
2023-05-20T01:39:53.744Z,2.10
2023-05-20T01:42:22.270Z,2.20
2023-05-20T01:44:50.315Z,2.00
2023-05-20T01:47:18.275Z,2.40
2023-05-20T01:49:47.884Z,2.30
2023-05-20T01:52:16.575Z,1.83
2023-05-20T01:54:51.034Z,2.63
2023-05-20T01:57:21.145Z,2.30
2023-05-20T01:59:49.332Z,1.83
2023-05-20T02:02:17.549Z,2.20
2023-05-20T02:04:48.259Z,2.37
2023-05-20T02:07:16.307Z,2.20
2023-05-20T02:09:44.310Z,2.70
2023-05-20T02:12:16.596Z,2.27
2023-05-20T02:14:46.464Z,2.33
2023-05-20T02:17:16.397Z,2.60
2023-05-20T02:19:44.609Z,2.20
2023-05-20T02:22:12.686Z,2.23
2023-05-20T02:24:40.672Z,2.30
2023-05-20T02:27:08.605Z,2.40
2023-05-20T02:29:37.155Z,2.30
2023-05-20T02:32:06.930Z,2.03
2023-05-20T02:34:34.857Z,2.63
2023-05-20T02:37:02.838Z,2.50
2023-05-20T02:39:30.804Z,2.30
2023-05-20T02:41:58.785Z,2.50
2023-05-20T02:44:26.734Z,2.37
2023-05-20T02:46:54.716Z,2.20
2023-05-20T02:49:24.476Z,2.30
2023-05-20T02:51:53.902Z,2.20
2023-05-20T02:54:21.842Z,2.20
2023-05-20T02:56:49.762Z,2.40
2023-05-20T02:59:18.330Z,2.67
2023-05-20T03:01:46.827Z,2.37
2023-05-20T03:04:15.617Z,2.40
2023-05-20T03:06:46.834Z,2.53
2023-05-20T03:09:15.727Z,2.10
2023-05-20T03:11:44.334Z,2.30
2023-05-20T03:14:12.984Z,2.40
2023-05-20T03:16:42.092Z,2.30
2023-05-20T03:19:10.586Z,2.10
2023-05-20T03:21:38.778Z,2.47
2023-05-20T03:24:09.092Z,2.27
2023-05-20T03:26:37.860Z,2.13
2023-05-20T03:29:06.596Z,2.50
2023-05-20T03:31:34.604Z,2.50
2023-05-20T03:34:02.562Z,2.33
2023-05-20T03:36:30.490Z,2.03
2023-05-20T03:38:58.482Z,2.23
2023-05-20T03:41:27.908Z,1.97
2023-05-20T03:43:55.861Z,2.70
2023-05-20T03:46:23.833Z,2.47
2023-05-20T03:48:51.848Z,2.37
2023-05-20T03:51:19.767Z,2.63
2023-05-20T03:53:48.277Z,2.30
2023-05-20T03:56:16.709Z,3.13
2023-05-20T03:58:46.856Z,2.40
2023-05-20T04:01:15.739Z,2.33
2023-05-20T04:03:44.363Z,2.57
2023-05-20T04:06:12.519Z,2.53
2023-05-20T04:08:40.913Z,2.37
2023-05-20T04:11:09.393Z,2.50
2023-05-20T04:13:37.914Z,2.10
2023-05-20T04:16:08.149Z,2.43
2023-05-20T04:18:39.565Z,2.33
2023-05-20T04:21:08.716Z,2.40
2023-05-20T04:23:37.294Z,2.10
2023-05-20T04:26:05.887Z,2.43
2023-05-20T04:28:33.906Z,2.70
2023-05-20T04:31:02.895Z,2.37
2023-05-20T04:33:33.183Z,2.10
2023-05-20T04:36:01.536Z,2.60
2023-05-20T04:38:30.934Z,2.20
2023-05-20T04:40:59.368Z,2.27
2023-05-20T04:43:30.452Z,2.30
2023-05-20T04:45:59.230Z,2.20
2023-05-20T04:48:27.502Z,2.23
2023-05-20T04:50:57.440Z,2.50
2023-05-20T04:53:25.664Z,2.57
2023-05-20T04:55:57.260Z,2.60
2023-05-20T04:58:25.571Z,2.63
2023-05-20T05:00:53.900Z,2.53
2023-05-20T05:03:21.814Z,2.80
2023-05-20T05:05:49.782Z,2.80
2023-05-20T05:08:19.212Z,2.40
2023-05-20T05:10:47.536Z,2.40
2023-05-20T05:13:16.063Z,2.90
2023-05-20T05:15:44.418Z,2.47
2023-05-20T05:18:12.728Z,3.07
2023-05-20T05:20:40.930Z,5.10
2023-05-20T05:23:09.105Z,2.80
2023-05-20T05:25:38.490Z,2.43
2023-05-20T05:28:06.410Z,2.40
2023-05-20T05:30:34.393Z,2.37
2023-05-20T05:33:02.473Z,2.70
2023-05-20T05:35:30.644Z,2.43
2023-05-20T05:37:58.548Z,2.70
2023-05-20T05:40:26.566Z,2.60
2023-05-20T05:42:55.934Z,3.23
2023-05-20T05:45:24.076Z,2.73
2023-05-20T05:47:52.117Z,3.10
2023-05-20T05:50:20.200Z,2.67
2023-05-20T05:52:48.146Z,2.50
2023-05-20T05:55:16.184Z,2.30
2023-05-20T05:57:44.111Z,2.77
2023-05-20T06:00:14.135Z,2.93
2023-05-20T06:02:42.280Z,2.63
2023-05-20T06:05:10.846Z,2.50
2023-05-20T06:07:38.802Z,2.77
2023-05-20T06:10:07.271Z,2.67
2023-05-20T06:12:35.170Z,2.93
2023-05-20T06:15:03.247Z,3.10
2023-05-20T06:17:32.654Z,3.87
2023-05-20T06:20:00.659Z,3.40
2023-05-20T06:22:28.609Z,4.17
2023-05-20T06:25:00.516Z,4.80
2023-05-20T06:27:28.646Z,4.50
2023-05-20T06:29:56.638Z,3.50
2023-05-20T06:32:24.723Z,4.13
2023-05-20T06:34:54.238Z,3.50
2023-05-20T06:37:24.539Z,2.63
2023-05-20T06:39:54.194Z,3.20
2023-05-20T06:42:22.330Z,2.53
2023-05-20T06:44:50.236Z,3.03
2023-05-20T06:47:18.718Z,3.20
2023-05-20T06:49:47.646Z,2.83
2023-05-20T06:52:17.203Z,3.43
2023-05-20T06:54:45.205Z,3.37
2023-05-20T06:57:13.192Z,3.33
2023-05-20T06:59:41.912Z,2.90
2023-05-20T07:02:09.935Z,3.53
2023-05-20T07:04:38.030Z,3.00
2023-05-20T07:07:06.005Z,3.10
2023-05-20T07:09:35.355Z,3.30
2023-05-20T07:12:03.823Z,3.10
2023-05-20T07:14:31.791Z,3.50
2023-05-20T07:16:59.760Z,3.67
2023-05-20T07:19:27.829Z,3.10
2023-05-20T07:21:55.788Z,3.03
2023-05-20T07:24:23.733Z,3.13
2023-05-20T07:26:53.138Z,5.97
2023-05-20T07:29:21.092Z,3.33
2023-05-20T07:31:49.079Z,3.00
2023-05-20T07:34:17.159Z,3.03
2023-05-20T07:36:45.074Z,3.00
2023-05-20T07:39:15.327Z,3.10
2023-05-20T07:41:43.410Z,3.00
2023-05-20T07:44:13.360Z,3.03
2023-05-20T07:46:42.062Z,3.60
2023-05-20T07:49:10.334Z,3.27
2023-05-20T07:51:38.538Z,3.23
2023-05-20T07:54:06.559Z,3.33
2023-05-20T07:56:34.540Z,3.20
2023-05-20T07:59:03.560Z,3.30
2023-05-20T08:01:33.071Z,3.10
2023-05-20T08:04:01.229Z,3.27
2023-05-20T08:06:30.048Z,3.37
2023-05-20T08:08:58.092Z,3.07
2023-05-20T08:11:26.005Z,3.30
2023-05-20T08:13:54.062Z,3.17
2023-05-20T08:16:22.872Z,3.23
2023-05-20T08:18:52.323Z,3.47
2023-05-20T08:21:20.334Z,3.20
2023-05-20T08:23:48.352Z,3.30
2023-05-20T08:26:16.336Z,4.23
2023-05-20T08:28:44.406Z,3.07
2023-05-20T08:31:12.491Z,3.50
2023-05-20T08:33:40.741Z,3.20
2023-05-20T08:36:10.197Z,3.70
2023-05-20T08:38:38.176Z,4.07
2023-05-20T08:41:06.177Z,3.43
2023-05-20T08:43:34.604Z,3.67
2023-05-20T08:46:05.559Z,3.33
2023-05-20T08:48:34.670Z,3.43
2023-05-20T08:51:04.075Z,3.53
2023-05-20T08:53:33.458Z,3.50
2023-05-20T08:56:03.755Z,3.50
2023-05-20T08:58:32.852Z,3.50
2023-05-20T09:01:01.101Z,3.87
2023-05-20T09:03:29.149Z,3.50
2023-05-20T09:06:04.690Z,3.87
2023-05-20T09:08:34.581Z,3.70
2023-05-20T09:11:02.738Z,3.60
2023-05-20T09:13:32.723Z,3.70
2023-05-20T09:16:01.209Z,4.47
2023-05-20T09:18:29.477Z,5.30
2023-05-20T09:20:57.828Z,4.00
2023-05-20T09:23:27.846Z,4.33
2023-05-20T09:25:57.303Z,4.13
2023-05-20T09:28:26.312Z,3.43
2023-05-20T09:30:58.214Z,3.70
2023-05-20T09:33:30.041Z,3.67
2023-05-20T09:36:03.669Z,3.97
2023-05-20T09:38:35.705Z,3.57
2023-05-20T09:41:08.323Z,4.10
2023-05-20T09:43:36.481Z,3.40
2023-05-20T09:46:05.758Z,3.50
2023-05-20T09:48:34.496Z,4.10
2023-05-20T09:51:02.868Z,4.00
2023-05-20T09:53:31.242Z,4.37
2023-05-20T09:55:59.834Z,3.70
2023-05-20T09:58:30.312Z,3.47
2023-05-20T10:00:58.332Z,3.90
2023-05-20T10:03:28.190Z,3.47
2023-05-20T10:06:08.417Z,3.83
2023-05-20T10:08:44.238Z,4.03
2023-05-20T10:11:16.872Z,4.03
2023-05-20T10:14:00.641Z,3.87
2023-05-20T10:16:34.265Z,4.43
2023-05-20T10:19:06.899Z,3.57
2023-05-20T10:21:34.874Z,4.10
2023-05-20T10:24:09.547Z,4.00
2023-05-20T10:26:38.414Z,3.60
2023-05-20T10:29:17.867Z,3.63
2023-05-20T10:31:46.814Z,4.13
2023-05-20T10:34:16.503Z,4.00
2023-05-20T10:36:48.281Z,3.93
2023-05-20T10:39:17.008Z,3.90
2023-05-20T10:41:44.956Z,3.40
2023-05-20T10:44:12.973Z,3.93
2023-05-20T10:47:03.822Z,3.80
2023-05-20T10:49:35.066Z,3.70
2023-05-20T10:52:03.251Z,3.77
2023-05-20T10:54:36.636Z,3.73
2023-05-20T10:57:07.934Z,3.30
2023-05-20T10:59:35.980Z,4.30
2023-05-20T11:02:05.634Z,3.70
2023-05-20T11:04:33.868Z,3.70
2023-05-20T11:07:01.785Z,3.13
2023-05-20T11:09:32.184Z,3.37
2023-05-20T11:12:00.159Z,4.90
2023-05-20T11:14:29.516Z,3.87
2023-05-20T11:16:58.152Z,4.37
2023-05-20T11:19:27.853Z,3.53
2023-05-20T11:21:56.191Z,4.00
2023-05-20T11:24:25.395Z,3.60
2023-05-20T11:26:53.912Z,3.70
2023-05-20T11:29:22.679Z,3.50
2023-05-20T11:31:52.355Z,3.83
2023-05-20T11:34:23.231Z,4.03
2023-05-20T11:36:59.117Z,3.37
2023-05-20T11:39:28.173Z,3.30
2023-05-20T11:41:56.354Z,3.97
2023-05-20T11:44:24.379Z,3.97
2023-05-20T11:46:52.301Z,3.63
2023-05-20T11:49:20.348Z,4.13
2023-05-20T11:51:48.295Z,4.00
2023-05-20T11:54:17.663Z,3.80
2023-05-20T11:56:45.683Z,3.63
2023-05-20T11:59:14.924Z,3.60
2023-05-20T12:01:43.229Z,3.30
2023-05-20T12:04:13.519Z,3.63
2023-05-20T12:06:43.091Z,3.67
2023-05-20T12:09:11.703Z,3.70
2023-05-20T12:11:42.109Z,3.57
2023-05-20T12:14:10.761Z,3.60
2023-05-20T12:16:39.376Z,3.43
2023-05-20T12:19:08.899Z,4.33
2023-05-20T12:21:36.923Z,3.37
2023-05-20T12:24:07.141Z,3.77
2023-05-20T12:26:35.797Z,3.57
2023-05-20T12:29:05.225Z,2.90
2023-05-20T12:31:34.979Z,3.03
2023-05-20T12:34:03.233Z,3.20
2023-05-20T12:36:31.655Z,2.90
2023-05-20T12:38:59.664Z,3.00
2023-05-20T12:41:27.696Z,2.90
2023-05-20T12:43:55.697Z,2.93
2023-05-20T12:46:25.117Z,2.73
2023-05-20T12:48:53.352Z,2.97
2023-05-20T12:51:21.375Z,3.43
2023-05-20T12:53:49.537Z,2.80
2023-05-20T12:56:17.903Z,3.13
2023-05-20T12:58:45.809Z,3.30
2023-05-20T13:01:13.840Z,3.00
2023-05-20T13:03:43.291Z,3.57
2023-05-20T13:06:11.305Z,3.10
2023-05-20T13:08:39.314Z,3.43
2023-05-20T13:11:07.272Z,2.90
2023-05-20T13:13:35.248Z,3.23
2023-05-20T13:16:03.461Z,2.93
2023-05-20T13:18:31.417Z,2.90
2023-05-20T13:21:00.860Z,2.97
2023-05-20T13:23:28.770Z,2.97
2023-05-20T13:25:56.775Z,2.70
2023-05-20T13:28:24.808Z,3.70
2023-05-20T13:30:52.838Z,3.07
2023-05-20T13:33:21.031Z,3.13
2023-05-20T13:35:48.939Z,2.80
2023-05-20T13:38:18.787Z,2.80
2023-05-20T13:40:46.750Z,2.80
2023-05-20T13:43:14.726Z,3.00
2023-05-20T13:45:42.677Z,3.23
2023-05-20T13:48:11.396Z,3.00
2023-05-20T13:50:39.439Z,2.90
2023-05-20T13:53:12.513Z,3.07
2023-05-20T13:55:42.333Z,2.70
2023-05-20T13:58:10.262Z,3.07
2023-05-20T14:00:38.384Z,3.00
2023-05-20T14:03:09.189Z,3.10
2023-05-20T14:05:37.329Z,3.07
2023-05-20T14:08:05.486Z,2.73
2023-05-20T14:10:33.611Z,2.70
2023-05-20T14:13:03.370Z,3.20
2023-05-20T14:15:31.764Z,2.90
2023-05-20T14:17:59.833Z,3.20
2023-05-20T14:20:27.865Z,2.80
2023-05-20T14:22:55.945Z,2.67
2023-05-20T14:25:23.913Z,3.40
2023-05-20T14:27:51.819Z,3.50
2023-05-20T14:30:21.180Z,2.83
2023-05-20T14:32:49.153Z,3.00
2023-05-20T14:35:18.370Z,2.60
2023-05-20T14:37:46.523Z,2.30
2023-05-20T14:40:14.731Z,3.00
2023-05-20T14:42:42.689Z,2.50
2023-05-20T14:45:11.328Z,2.97
2023-05-20T14:47:41.284Z,2.87
2023-05-20T14:50:09.561Z,2.80
2023-05-20T14:52:37.505Z,2.90
2023-05-20T14:55:05.831Z,2.83
2023-05-20T14:57:33.814Z,3.33
2023-05-20T15:00:01.760Z,2.80
2023-05-20T15:02:29.803Z,3.00
2023-05-20T15:04:59.272Z,2.93
2023-05-20T15:07:27.244Z,2.50
2023-05-20T15:09:55.237Z,2.97
2023-05-20T15:12:23.279Z,2.63
2023-05-20T15:14:51.242Z,2.57
2023-05-20T15:17:19.210Z,2.53
2023-05-20T15:19:47.178Z,2.70
2023-05-20T15:22:16.676Z,2.33
2023-05-20T15:24:44.658Z,2.57
2023-05-20T15:27:12.560Z,2.50
2023-05-20T15:29:40.991Z,2.70
2023-05-20T15:32:09.063Z,2.50
2023-05-20T15:34:36.959Z,3.00
2023-05-20T15:37:04.979Z,2.63
2023-05-20T15:39:38.082Z,2.70
2023-05-20T15:42:06.566Z,2.80
2023-05-20T15:44:36.219Z,2.83
2023-05-20T15:47:06.189Z,3.97
2023-05-20T15:49:34.236Z,2.73
2023-05-20T15:52:04.043Z,5.27
2023-05-20T15:54:32.603Z,3.03
2023-05-20T15:57:02.789Z,3.00
2023-05-20T15:59:30.736Z,2.87
2023-05-20T16:01:58.692Z,2.80
2023-05-20T16:04:26.906Z,2.73
2023-05-20T16:06:55.048Z,2.77
2023-05-20T16:09:23.125Z,2.27
2023-05-20T16:11:51.167Z,2.73
2023-05-20T16:14:20.675Z,2.80
2023-05-20T16:16:48.741Z,3.33
2023-05-20T16:19:16.878Z,2.60
2023-05-20T16:21:45.696Z,2.80
2023-05-20T16:24:13.639Z,2.93
2023-05-20T16:26:41.628Z,2.57
2023-05-20T16:29:09.629Z,2.10
2023-05-20T16:31:39.024Z,2.80
2023-05-20T16:34:06.990Z,2.40
2023-05-20T16:36:34.914Z,2.63
2023-05-20T16:39:02.934Z,2.60
2023-05-20T16:41:30.927Z,3.37
2023-05-20T16:43:58.855Z,3.07
2023-05-20T16:46:26.840Z,2.50
2023-05-20T16:48:56.253Z,3.03
2023-05-20T16:51:24.298Z,2.67
2023-05-20T16:53:55.317Z,2.80
2023-05-20T16:56:23.610Z,2.90
2023-05-20T16:58:53.127Z,3.07
2023-05-20T17:01:21.654Z,2.70
2023-05-20T17:03:50.010Z,3.03
2023-05-20T17:06:19.565Z,3.13
2023-05-20T17:08:47.523Z,2.90
2023-05-20T17:11:15.824Z,2.70
2023-05-20T17:13:43.808Z,3.07
2023-05-20T17:16:12.282Z,2.90
2023-05-20T17:18:40.338Z,2.83
2023-05-20T17:21:08.373Z,2.53
2023-05-20T17:23:37.755Z,2.43
2023-05-20T17:26:06.475Z,2.50
2023-05-20T17:28:34.601Z,2.63
2023-05-20T17:31:02.654Z,3.10
2023-05-20T17:33:30.814Z,3.00
2023-05-20T17:35:59.069Z,2.93
2023-05-20T17:38:27.158Z,2.97
2023-05-20T17:40:56.953Z,2.90
2023-05-20T17:43:25.828Z,3.10
2023-05-20T17:45:53.870Z,3.00
2023-05-20T17:48:21.874Z,3.10
2023-05-20T17:50:49.853Z,3.27
2023-05-20T17:53:19.668Z,3.17
2023-05-20T17:55:49.608Z,5.70
2023-05-20T17:58:22.341Z,3.20
2023-05-20T18:00:50.396Z,2.97
2023-05-20T18:03:19.237Z,3.00
2023-05-20T18:05:47.783Z,3.23
2023-05-20T18:08:15.880Z,3.20
2023-05-20T18:10:43.796Z,3.07
2023-05-20T18:13:11.783Z,3.53
2023-05-20T18:15:41.263Z,3.40
2023-05-20T18:18:09.234Z,3.27
2023-05-20T18:20:37.518Z,3.20
2023-05-20T18:23:05.718Z,3.33
2023-05-20T18:25:33.659Z,3.93
2023-05-20T18:28:01.729Z,3.10
2023-05-20T18:30:30.102Z,3.93
2023-05-20T18:32:59.600Z,3.73
2023-05-20T18:35:27.591Z,3.10
2023-05-20T18:37:55.604Z,2.87
2023-05-20T18:40:23.769Z,3.47
2023-05-20T18:42:51.716Z,3.27
2023-05-20T18:45:19.832Z,3.43
2023-05-20T18:47:47.859Z,3.63
2023-05-20T18:50:17.364Z,3.53
2023-05-20T18:52:45.335Z,3.50
2023-05-20T18:55:13.311Z,4.30
2023-05-20T18:57:41.312Z,3.63
2023-05-20T19:00:12.553Z,3.57
2023-05-20T19:02:40.853Z,3.40
2023-05-20T19:05:09.975Z,3.60
2023-05-20T19:07:39.937Z,3.47
2023-05-20T19:10:08.641Z,3.97
2023-05-20T19:12:36.629Z,4.10
2023-05-20T19:15:05.330Z,3.83
2023-05-20T19:17:33.284Z,3.47
2023-05-20T19:20:01.270Z,3.40
2023-05-20T19:22:29.175Z,3.37
2023-05-20T19:24:58.615Z,3.00
2023-05-20T19:27:26.614Z,3.10
2023-05-20T19:29:54.583Z,3.60
2023-05-20T19:32:22.558Z,3.43
2023-05-20T19:34:50.808Z,3.37
2023-05-20T19:37:19.225Z,3.53
2023-05-20T19:39:48.891Z,3.37
2023-05-20T19:42:18.505Z,3.90
2023-05-20T19:44:46.900Z,3.70
2023-05-20T19:47:15.020Z,4.13
2023-05-20T19:49:43.009Z,3.70
2023-05-20T19:52:11.192Z,4.30
2023-05-20T19:54:39.495Z,4.17
2023-05-20T19:57:07.445Z,4.20
2023-05-20T19:59:38.261Z,4.00
2023-05-20T20:02:06.618Z,4.70
2023-05-20T20:04:34.578Z,4.00
2023-05-20T20:07:03.627Z,3.83
2023-05-20T20:09:31.625Z,3.50
2023-05-20T20:11:59.565Z,3.93
2023-05-20T20:14:27.549Z,4.00
2023-05-20T20:16:57.499Z,4.30
2023-05-20T20:19:26.356Z,4.13
2023-05-20T20:21:56.703Z,4.60
2023-05-20T20:24:25.363Z,4.40
2023-05-20T20:26:54.326Z,4.00
2023-05-20T20:29:22.966Z,4.37
2023-05-20T20:31:50.992Z,4.47
2023-05-20T20:34:20.502Z,4.00
2023-05-20T20:36:48.519Z,3.93
2023-05-20T20:39:19.288Z,3.80
2023-05-20T20:41:47.523Z,4.50
2023-05-20T20:44:18.734Z,4.43
2023-05-20T20:46:46.860Z,4.57
2023-05-20T20:49:14.812Z,3.47
2023-05-20T20:51:44.232Z,4.00
2023-05-20T20:54:12.136Z,3.93
2023-05-20T20:56:40.101Z,3.97
2023-05-20T20:59:09.013Z,3.70
2023-05-20T21:01:37.967Z,3.63
2023-05-20T21:04:06.564Z,3.47
2023-05-20T21:06:34.535Z,4.00
2023-05-20T21:09:04.007Z,3.80
2023-05-20T21:11:32.024Z,4.10
2023-05-20T21:13:59.994Z,3.70
2023-05-20T21:16:27.991Z,4.10
2023-05-20T21:18:56.046Z,3.97
2023-05-20T21:21:23.988Z,4.27
2023-05-20T21:23:52.943Z,4.20
2023-05-20T21:26:22.576Z,3.47
2023-05-20T21:28:50.530Z,4.30
2023-05-20T21:31:18.474Z,3.40
2023-05-20T21:33:46.516Z,4.57
2023-05-20T21:36:14.555Z,3.57
2023-05-20T21:38:42.531Z,3.40
2023-05-20T21:41:10.510Z,3.70
2023-05-20T21:43:39.878Z,3.70
2023-05-20T21:46:08.068Z,3.87
2023-05-20T21:48:36.106Z,3.83
2023-05-20T21:51:04.027Z,4.30
2023-05-20T21:53:32.021Z,4.10
2023-05-20T21:56:00.046Z,4.30
2023-05-20T21:58:28.002Z,3.60
2023-05-20T22:00:57.391Z,3.83
2023-05-20T22:03:25.598Z,4.00
2023-05-20T22:05:53.656Z,3.10
2023-05-20T22:08:21.864Z,3.30
2023-05-20T22:10:49.859Z,4.03
2023-05-20T22:13:17.829Z,3.70
2023-05-20T22:15:45.735Z,3.77
2023-05-20T22:18:15.688Z,4.10
2023-05-20T22:20:43.682Z,3.73
2023-05-20T22:23:11.603Z,3.90
2023-05-20T22:25:39.622Z,3.93
2023-05-20T22:28:07.626Z,4.20
2023-05-20T22:30:35.739Z,3.40
2023-05-20T22:33:03.731Z,3.60
2023-05-20T22:35:33.249Z,3.90
2023-05-20T22:38:01.482Z,3.63
2023-05-20T22:40:29.450Z,3.80
2023-05-20T22:42:57.468Z,3.20
2023-05-20T22:45:25.402Z,3.13
2023-05-20T22:47:54.311Z,3.10
2023-05-20T22:50:24.109Z,3.23
2023-05-20T22:52:53.510Z,3.70
2023-05-20T22:55:22.212Z,3.77
2023-05-20T22:57:50.242Z,4.17
2023-05-20T23:00:18.720Z,3.53
2023-05-20T23:02:50.088Z,3.70
2023-05-20T23:05:18.187Z,3.80
2023-05-20T23:07:46.124Z,3.93
2023-05-20T23:10:15.478Z,3.60
2023-05-20T23:12:43.375Z,4.17
2023-05-20T23:15:11.694Z,3.63
2023-05-20T23:17:40.700Z,3.40
2023-05-20T23:20:11.020Z,3.80
2023-05-20T23:22:39.479Z,3.83
2023-05-20T23:25:07.850Z,3.63
2023-05-20T23:27:37.227Z,3.40
2023-05-20T23:30:05.772Z,3.80
2023-05-20T23:32:33.757Z,3.60
2023-05-20T23:35:02.853Z,3.47
2023-05-20T23:37:30.869Z,3.67
2023-05-20T23:39:58.821Z,3.37
2023-05-20T23:42:26.962Z,4.33
2023-05-20T23:44:56.317Z,3.87
2023-05-20T23:47:26.212Z,3.33
2023-05-20T23:49:56.081Z,3.77
2023-05-20T23:52:24.324Z,3.57
2023-05-20T23:54:52.720Z,3.60
2023-05-20T23:57:21.024Z,3.40
2023-05-20T23:59:49.228Z,3.43
